Time;durP1;ratioP1;P1;durP2;ratioP2;P2;SDS_P1;SDS_P2;PMS_P1;PMS_P2;Temp;Humidity;BMP_temperature;BMP_pressure;BME280_temperature;BME280_humidity;BME280_pressure;Samples;Min_cycle;Max_cycle;Signal;HPM_P1;HPM_P2
2021/08/20 00:00:55;;;;;;;192.02;14.45;;;;;;;;;;4980455;28;20089;-60
2021/08/20 00:03:20;;;;;;;54.47;11.65;;;;;;;;;;4980420;28;20041;-61
2021/08/20 00:05:46;;;;;;;60.13;11.75;;;;;;;;;;4982432;28;20428;-60
2021/08/20 00:08:11;;;;;;;71.00;12.55;;;;;;;;;;4978218;28;20061;-60
2021/08/20 00:10:37;;;;;;;78.60;12.40;;;;;;;;;;4984612;28;20066;-61
2021/08/20 00:13:03;;;;;;;178.00;13.90;;;;;;;;;;4984189;28;20038;-60
2021/08/20 00:15:31;;;;;;;209.70;12.15;;;;;;;;;;4984431;28;20042;-61
2021/08/20 00:17:57;;;;;;;48.58;11.43;;;;;;;;;;4978430;28;20485;-60
2021/08/20 00:20:22;;;;;;;111.00;11.07;;;;;;;;;;4983676;28;20034;-61
2021/08/20 00:22:48;;;;;;;168.02;11.25;;;;;;;;;;4983913;28;20497;-60
2021/08/20 00:25:14;;;;;;;74.97;11.77;;;;;;;;;;4982262;28;20069;-60
2021/08/20 00:27:40;;;;;;;148.02;11.90;;;;;;;;;;4981097;28;20038;-60
2021/08/20 00:30:07;;;;;;;82.70;11.63;;;;;;;;;;4981437;28;20104;-60
2021/08/20 00:32:37;;;;;;;99.78;12.43;;;;;;;;;;4984047;28;20059;-61
2021/08/20 00:35:04;;;;;;;78.25;11.50;;;;;;;;;;4989477;28;20113;-60
2021/08/20 00:37:29;;;;;;;68.25;11.60;;;;;;;;;;4983880;28;20026;-60
2021/08/20 00:39:55;;;;;;;81.13;10.35;;;;;;;;;;4980028;28;20563;-60
2021/08/20 00:42:20;;;;;;;92.65;11.57;;;;;;;;;;4982422;28;20056;-61
2021/08/20 00:44:46;;;;;;;30.85;9.90;;;;;;;;;;4982098;28;20055;-60
2021/08/20 00:47:11;;;;;;;41.33;10.13;;;;;;;;;;4985491;28;20064;-60
2021/08/20 00:49:37;;;;;;;90.63;13.25;;;;;;;;;;4985624;28;20074;-61
2021/08/20 00:52:03;;;;;;;98.30;12.30;;;;;;;;;;4982413;28;20034;-60
2021/08/20 00:54:28;;;;;;;44.55;10.27;;;;;;;;;;4981769;28;20031;-60
2021/08/20 00:56:54;;;;;;;91.65;10.20;;;;;;;;;;4982659;28;20440;-61
2021/08/20 00:59:24;;;;;;;91.30;12.25;;;;;;;;;;4978469;28;20527;-61
2021/08/20 01:01:50;;;;;;;48.15;11.25;;;;;;;;;;4985942;28;20061;-60
2021/08/20 01:04:15;;;;;;;88.57;12.30;;;;;;;;;;4982440;28;20432;-61
2021/08/20 01:06:41;;;;;;;32.75;9.63;;;;;;;;;;4984331;28;20034;-61
2021/08/20 01:09:09;;;;;;;52.38;10.57;;;;;;;;;;4991540;28;20038;-61
2021/08/20 01:11:35;;;;;;;76.13;11.15;;;;;;;;;;4984755;28;20034;-61
2021/08/20 01:14:01;;;;;;;57.25;12.88;;;;;;;;;;4989158;28;20078;-60
2021/08/20 01:16:27;;;;;;;117.45;12.73;;;;;;;;;;4982870;28;20394;-60
2021/08/20 01:18:52;;;;;;;124.35;12.13;;;;;;;;;;4981229;28;20039;-60
2021/08/20 01:21:22;;;;;;;112.88;12.98;;;;;;;;;;4981228;28;20035;-60
2021/08/20 01:23:49;;;;;;;90.57;12.30;;;;;;;;;;4979901;28;20686;-61
2021/08/20 01:26:15;;;;;;;57.50;13.25;;;;;;;;;;4980898;28;20030;-61
2021/08/20 01:28:40;;;;;;;37.60;12.10;;;;;;;;;;4976328;28;20050;-61
2021/08/20 01:31:10;;;;;;;33.22;11.25;;;;;;;;;;4987494;28;20037;-61
2021/08/20 01:33:36;;;;;;;31.27;10.60;;;;;;;;;;4977211;28;20030;-60
2021/08/20 01:36:02;;;;;;;40.88;10.85;;;;;;;;;;4980879;28;20514;-60
2021/08/20 01:38:27;;;;;;;27.00;10.88;;;;;;;;;;4987944;28;20038;-60
2021/08/20 01:40:54;;;;;;;29.33;10.18;;;;;;;;;;4985733;28;20520;-61
2021/08/20 01:43:23;;;;;;;36.78;10.60;;;;;;;;;;4979250;28;20034;-60
2021/08/20 01:45:49;;;;;;;30.88;11.10;;;;;;;;;;4979160;28;20038;-61
2021/08/20 01:48:15;;;;;;;28.80;10.85;;;;;;;;;;4988235;28;20041;-60
2021/08/20 01:50:41;;;;;;;28.50;11.23;;;;;;;;;;4980276;28;20038;-60
2021/08/20 01:53:11;;;;;;;32.80;11.43;;;;;;;;;;4979835;28;20038;-60
2021/08/20 01:55:37;;;;;;;47.28;12.85;;;;;;;;;;4983158;28;20050;-60
2021/08/20 01:58:04;;;;;;;41.67;14.50;;;;;;;;;;4996324;28;20683;-60
2021/08/20 02:00:30;;;;;;;33.58;12.23;;;;;;;;;;4976247;28;20235;-60
2021/08/20 02:02:56;;;;;;;33.50;12.13;;;;;;;;;;4979181;28;20050;-61
2021/08/20 02:05:21;;;;;;;31.63;12.45;;;;;;;;;;4980332;28;20038;-60
2021/08/20 02:07:47;;;;;;;30.85;12.45;;;;;;;;;;4983262;28;20092;-60
2021/08/20 02:10:12;;;;;;;27.17;11.98;;;;;;;;;;4981366;28;20493;-60
2021/08/20 02:12:38;;;;;;;29.50;12.07;;;;;;;;;;4982356;28;20113;-60
2021/08/20 02:15:05;;;;;;;30.33;12.10;;;;;;;;;;4984469;28;20178;-61
2021/08/20 02:17:30;;;;;;;23.48;10.93;;;;;;;;;;4974365;28;20125;-60
2021/08/20 02:19:56;;;;;;;26.95;11.80;;;;;;;;;;4987394;28;20121;-61
2021/08/20 02:22:21;;;;;;;22.88;10.57;;;;;;;;;;4981049;28;20058;-60
2021/08/20 02:24:47;;;;;;;21.48;10.20;;;;;;;;;;4977447;28;20125;-60
2021/08/20 02:27:13;;;;;;;23.30;10.98;;;;;;;;;;4980260;28;20027;-61
2021/08/20 02:29:38;;;;;;;28.15;11.30;;;;;;;;;;4981726;28;20054;-60
2021/08/20 02:32:04;;;;;;;22.90;11.23;;;;;;;;;;4983193;28;20073;-61
2021/08/20 02:34:30;;;;;;;24.48;10.77;;;;;;;;;;4977170;28;20152;-61
2021/08/20 02:36:55;;;;;;;39.10;13.55;;;;;;;;;;4973621;28;20031;-60
2021/08/20 02:39:21;;;;;;;33.75;13.15;;;;;;;;;;4978958;28;20069;-60
2021/08/20 02:41:46;;;;;;;32.97;11.75;;;;;;;;;;4979473;28;20076;-60
2021/08/20 02:44:11;;;;;;;41.90;14.35;;;;;;;;;;4984154;28;20073;-60
2021/08/20 02:46:38;;;;;;;33.00;13.02;;;;;;;;;;4978526;28;20727;-61
2021/08/20 02:49:04;;;;;;;32.00;12.38;;;;;;;;;;4980142;28;20038;-61
2021/08/20 02:51:29;;;;;;;29.05;11.75;;;;;;;;;;4979658;28;20038;-60
2021/08/20 02:53:55;;;;;;;27.10;11.88;;;;;;;;;;4986660;28;20049;-61
2021/08/20 02:56:20;;;;;;;32.45;12.18;;;;;;;;;;4976059;28;20031;-60
2021/08/20 02:58:46;;;;;;;28.27;11.85;;;;;;;;;;4979389;28;20616;-60
2021/08/20 03:01:13;;;;;;;27.98;11.05;;;;;;;;;;4979731;28;20421;-61
2021/08/20 03:03:38;;;;;;;28.42;11.82;;;;;;;;;;4996217;28;20429;-60
2021/08/20 03:06:04;;;;;;;32.50;11.75;;;;;;;;;;4971666;28;20034;-61
2021/08/20 03:08:29;;;;;;;27.33;11.68;;;;;;;;;;4979378;28;20936;-59
2021/08/20 03:10:55;;;;;;;28.80;11.45;;;;;;;;;;4982944;28;20040;-60
2021/08/20 03:13:20;;;;;;;33.22;11.43;;;;;;;;;;4980959;28;20465;-60
2021/08/20 03:15:46;;;;;;;33.55;12.55;;;;;;;;;;4980850;28;20053;-60
2021/08/20 03:18:11;;;;;;;30.17;12.55;;;;;;;;;;4975213;28;20046;-60
2021/08/20 03:20:37;;;;;;;30.17;11.68;;;;;;;;;;4980879;28;20515;-60
2021/08/20 03:23:02;;;;;;;31.10;13.05;;;;;;;;;;4980666;28;20066;-60
2021/08/20 03:25:28;;;;;;;31.88;12.98;;;;;;;;;;4987583;28;20472;-60
2021/08/20 03:27:53;;;;;;;30.33;11.52;;;;;;;;;;4986852;28;20042;-60
2021/08/20 03:30:19;;;;;;;29.27;11.77;;;;;;;;;;4979633;28;20053;-60
2021/08/20 03:32:44;;;;;;;34.28;11.57;;;;;;;;;;4973575;28;20031;-60
2021/08/20 03:35:11;;;;;;;26.73;11.85;;;;;;;;;;4975066;28;20065;-60
2021/08/20 03:37:40;;;;;;;25.30;11.20;;;;;;;;;;4983294;28;20038;-60
2021/08/20 03:40:06;;;;;;;24.48;10.48;;;;;;;;;;4980260;28;20042;-59
2021/08/20 03:42:32;;;;;;;22.88;9.55;;;;;;;;;;4980140;28;20484;-60
2021/08/20 03:44:57;;;;;;;23.05;9.43;;;;;;;;;;4974089;28;20057;-60
2021/08/20 03:47:23;;;;;;;26.40;10.32;;;;;;;;;;4979056;28;20490;-59
2021/08/20 03:49:48;;;;;;;22.77;9.07;;;;;;;;;;4975407;28;20042;-60
2021/08/20 03:52:14;;;;;;;23.77;11.00;;;;;;;;;;4978238;28;20277;-59
2021/08/20 03:54:39;;;;;;;28.20;9.55;;;;;;;;;;4978721;28;20037;-60
2021/08/20 03:57:05;;;;;;;33.38;11.45;;;;;;;;;;4979816;28;20069;-60
2021/08/20 03:59:31;;;;;;;30.98;11.07;;;;;;;;;;4975719;28;20038;-60
2021/08/20 04:01:57;;;;;;;30.52;11.65;;;;;;;;;;4974255;28;20026;-60
2021/08/20 04:04:22;;;;;;;35.13;12.90;;;;;;;;;;4981583;28;20291;-60
2021/08/20 04:06:47;;;;;;;36.47;13.48;;;;;;;;;;4980359;28;20038;-60
2021/08/20 04:09:13;;;;;;;64.70;14.73;;;;;;;;;;4984555;28;20125;-60
2021/08/20 04:11:39;;;;;;;53.15;16.10;;;;;;;;;;4981443;28;20113;-60
2021/08/20 04:14:04;;;;;;;48.45;14.85;;;;;;;;;;4974928;28;20099;-60
2021/08/20 04:16:31;;;;;;;50.35;16.10;;;;;;;;;;4973512;28;20065;-60
2021/08/20 04:18:57;;;;;;;47.45;16.20;;;;;;;;;;4980239;28;20076;-60
2021/08/20 04:21:22;;;;;;;56.42;16.20;;;;;;;;;;4982140;28;20436;-60
2021/08/20 04:23:48;;;;;;;56.72;17.35;;;;;;;;;;4980793;28;20028;-60
2021/08/20 04:26:13;;;;;;;67.25;16.27;;;;;;;;;;4980775;28;20045;-60
2021/08/20 04:28:39;;;;;;;119.45;19.20;;;;;;;;;;4980533;28;20074;-60
2021/08/20 04:31:05;;;;;;;78.03;17.40;;;;;;;;;;4986189;28;20033;-60
2021/08/20 04:33:30;;;;;;;107.00;18.80;;;;;;;;;;4977840;28;20026;-60
2021/08/20 04:35:56;;;;;;;64.65;17.67;;;;;;;;;;4989671;28;20041;-60
2021/08/20 04:38:21;;;;;;;75.18;18.58;;;;;;;;;;4988039;28;20037;-60
2021/08/20 04:40:47;;;;;;;75.88;17.58;;;;;;;;;;4987699;28;20453;-61
2021/08/20 04:43:12;;;;;;;48.10;15.68;;;;;;;;;;4985649;28;20500;-60
2021/08/20 04:45:38;;;;;;;43.83;14.57;;;;;;;;;;4981287;28;20564;-60
2021/08/20 04:48:04;;;;;;;35.10;12.95;;;;;;;;;;4988393;28;20038;-60
2021/08/20 04:50:30;;;;;;;37.88;13.20;;;;;;;;;;4981872;28;20035;-60
2021/08/20 04:52:56;;;;;;;36.80;13.57;;;;;;;;;;4984792;28;20050;-60
2021/08/20 04:55:21;;;;;;;37.38;13.15;;;;;;;;;;4985626;28;20537;-60
2021/08/20 04:57:47;;;;;;;40.88;12.77;;;;;;;;;;4979619;28;20053;-60
2021/08/20 05:00:13;;;;;;;33.67;12.88;;;;;;;;;;4986962;28;20053;-60
2021/08/20 05:02:39;;;;;;;34.83;13.13;;;;;;;;;;4983528;28;20046;-61
2021/08/20 05:05:05;;;;;;;32.78;13.27;;;;;;;;;;4987058;28;20081;-60
2021/08/20 05:07:35;;;;;;;35.70;13.45;;;;;;;;;;4989099;28;20038;-61
2021/08/20 05:10:04;;;;;;;34.88;13.55;;;;;;;;;;4979161;28;20442;-61
2021/08/20 05:12:30;;;;;;;36.10;14.65;;;;;;;;;;4982723;28;20069;-61
2021/08/20 05:14:55;;;;;;;31.30;13.65;;;;;;;;;;4984747;28;20023;-61
2021/08/20 05:17:21;;;;;;;32.35;13.40;;;;;;;;;;4981573;28;20121;-61
2021/08/20 05:19:46;;;;;;;32.67;13.95;;;;;;;;;;4987146;28;20038;-61
2021/08/20 05:22:12;;;;;;;33.60;14.10;;;;;;;;;;4977661;28;20101;-61
2021/08/20 05:24:37;;;;;;;31.27;12.60;;;;;;;;;;4986193;28;20041;-60
2021/08/20 05:27:03;;;;;;;30.73;13.40;;;;;;;;;;4986335;28;20080;-60
2021/08/20 05:29:43;;;;;;;34.55;13.48;;;;;;;;;;4976262;28;20066;-60
2021/08/20 05:32:09;;;;;;;39.88;15.18;;;;;;;;;;4983774;28;20393;-60
2021/08/20 05:34:36;;;;;;;39.65;14.57;;;;;;;;;;4984153;28;20539;-60
2021/08/20 05:37:01;;;;;;;88.93;16.73;;;;;;;;;;4981352;28;20077;-60
2021/08/20 05:39:27;;;;;;;103.15;15.27;;;;;;;;;;4986067;28;20042;-60
2021/08/20 05:41:52;;;;;;;65.75;15.93;;;;;;;;;;4980999;28;20041;-61
2021/08/20 05:44:18;;;;;;;46.83;15.90;;;;;;;;;;4980502;28;20084;-61
2021/08/20 05:46:43;;;;;;;196.32;21.90;;;;;;;;;;4981420;28;20039;-61
2021/08/20 05:49:09;;;;;;;55.72;17.90;;;;;;;;;;4977521;28;20117;-61
2021/08/20 05:51:34;;;;;;;43.80;17.10;;;;;;;;;;4980733;28;20138;-61
2021/08/20 05:54:00;;;;;;;48.47;17.50;;;;;;;;;;4983070;28;20077;-61
2021/08/20 05:56:26;;;;;;;52.38;16.52;;;;;;;;;;4970918;28;20121;-61
2021/08/20 05:58:52;;;;;;;56.67;17.50;;;;;;;;;;4983449;28;20050;-61
2021/08/20 06:01:18;;;;;;;54.05;17.35;;;;;;;;;;4980141;28;20030;-61
2021/08/20 06:03:44;;;;;;;86.68;18.83;;;;;;;;;;4980852;28;20034;-61
2021/08/20 06:06:14;;;;;;;64.88;18.17;;;;;;;;;;4974387;28;20058;-61
2021/08/20 06:08:40;;;;;;;164.30;19.42;;;;;;;;;;4983984;28;20088;-61
2021/08/20 06:11:05;;;;;;;109.85;19.55;;;;;;;;;;4975776;28;20125;-61
2021/08/20 06:13:31;;;;;;;137.98;21.60;;;;;;;;;;4981279;28;20094;-61
2021/08/20 06:15:56;;;;;;;62.08;19.40;;;;;;;;;;4982808;28;20030;-61
2021/08/20 06:18:22;;;;;;;56.65;18.15;;;;;;;;;;4981942;28;20417;-61
2021/08/20 06:20:47;;;;;;;130.68;19.15;;;;;;;;;;4981765;28;20398;-61
2021/08/20 06:23:13;;;;;;;193.50;19.83;;;;;;;;;;4975228;28;20034;-61
2021/08/20 06:25:38;;;;;;;199.75;20.73;;;;;;;;;;4983663;28;20045;-60
2021/08/20 06:28:04;;;;;;;90.38;19.42;;;;;;;;;;4980854;28;20038;-61
2021/08/20 06:30:30;;;;;;;140.57;21.00;;;;;;;;;;4979548;28;20043;-61
2021/08/20 06:32:55;;;;;;;86.07;18.65;;;;;;;;;;4978535;28;20026;-61
2021/08/20 06:35:20;;;;;;;70.18;17.48;;;;;;;;;;4981767;28;20056;-61
2021/08/20 06:37:46;;;;;;;115.00;18.10;;;;;;;;;;4976828;28;20400;-60
2021/08/20 06:40:12;;;;;;;118.70;17.80;;;;;;;;;;4975843;28;20294;-61
2021/08/20 06:42:37;;;;;;;80.18;17.55;;;;;;;;;;4984868;28;20401;-61
2021/08/20 06:45:03;;;;;;;82.68;19.88;;;;;;;;;;4978811;28;20047;-61
2021/08/20 06:47:29;;;;;;;75.68;17.77;;;;;;;;;;4974012;28;20154;-61
2021/08/20 06:49:54;;;;;;;132.40;18.80;;;;;;;;;;4976606;28;20027;-61
2021/08/20 06:52:20;;;;;;;44.17;16.98;;;;;;;;;;4975601;28;20034;-61
2021/08/20 06:54:45;;;;;;;135.25;20.48;;;;;;;;;;4975006;28;20198;-61
2021/08/20 06:57:13;;;;;;;64.25;18.40;;;;;;;;;;4978440;28;20113;-61
2021/08/20 06:59:39;;;;;;;48.40;17.55;;;;;;;;;;4980963;28;20141;-61
2021/08/20 07:02:04;;;;;;;51.80;17.50;;;;;;;;;;4978223;28;20463;-60
2021/08/20 07:04:30;;;;;;;45.15;14.77;;;;;;;;;;4975829;28;20436;-60
2021/08/20 07:06:56;;;;;;;60.92;16.50;;;;;;;;;;4982060;28;20444;-60
2021/08/20 07:09:24;;;;;;;53.58;16.73;;;;;;;;;;4977261;28;20053;-62
2021/08/20 07:11:49;;;;;;;41.55;15.93;;;;;;;;;;4975515;28;20441;-61
2021/08/20 07:14:15;;;;;;;38.97;14.43;;;;;;;;;;4979195;28;20034;-61
2021/08/20 07:16:40;;;;;;;33.85;13.65;;;;;;;;;;4975161;28;20054;-61
2021/08/20 07:19:06;;;;;;;31.27;13.30;;;;;;;;;;4982615;28;20110;-61
2021/08/20 07:21:31;;;;;;;33.13;15.40;;;;;;;;;;4976870;28;20041;-61
2021/08/20 07:23:57;;;;;;;39.78;14.40;;;;;;;;;;4978799;28;20400;-61
2021/08/20 07:26:22;;;;;;;29.63;12.93;;;;;;;;;;4979561;28;20030;-60
2021/08/20 07:28:48;;;;;;;32.72;14.25;;;;;;;;;;4977327;28;20046;-59
2021/08/20 07:31:13;;;;;;;32.63;13.00;;;;;;;;;;4976014;28;20524;-59
2021/08/20 07:33:39;;;;;;;29.38;13.40;;;;;;;;;;4974148;28;20035;-59
2021/08/20 07:36:04;;;;;;;28.17;12.57;;;;;;;;;;4973924;28;20070;-59
2021/08/20 07:38:30;;;;;;;32.70;12.73;;;;;;;;;;4978871;28;20026;-59
2021/08/20 07:40:55;;;;;;;28.80;13.05;;;;;;;;;;4973325;28;20053;-59
2021/08/20 07:43:21;;;;;;;29.88;12.15;;;;;;;;;;4978861;28;20538;-58
2021/08/20 07:45:47;;;;;;;28.77;11.10;;;;;;;;;;4979268;28;20054;-59
2021/08/20 07:48:12;;;;;;;20.13;10.52;;;;;;;;;;4971774;28;20130;-59
2021/08/20 07:50:40;;;;;;;21.30;9.13;;;;;;;;;;4976251;28;20034;-58
2021/08/20 07:53:06;;;;;;;23.85;11.02;;;;;;;;;;4974883;28;20034;-58
2021/08/20 07:55:33;;;;;;;23.17;8.95;;;;;;;;;;4979550;28;20046;-58
2021/08/20 07:57:59;;;;;;;17.48;8.25;;;;;;;;;;4974748;28;20482;-58
2021/08/20 08:00:26;;;;;;;16.58;8.20;;;;;;;;;;4978851;28;20084;-58
2021/08/20 08:02:53;;;;;;;14.82;7.68;;;;;;;;;;4981602;28;20038;-59
2021/08/20 08:05:19;;;;;;;17.48;7.30;;;;;;;;;;4988916;28;20870;-58
2021/08/20 08:07:45;;;;;;;15.15;7.43;;;;;;;;;;4977801;28;20052;-59
2021/08/20 08:10:11;;;;;;;16.20;6.97;;;;;;;;;;4978643;28;20174;-59
2021/08/20 08:12:37;;;;;;;15.73;7.03;;;;;;;;;;4975635;28;20041;-58
2021/08/20 08:15:05;;;;;;;13.93;7.10;;;;;;;;;;4984192;28;20031;-58
2021/08/20 08:17:31;;;;;;;18.48;5.30;;;;;;;;;;4975040;28;20023;-58
2021/08/20 08:19:56;;;;;;;15.38;6.97;;;;;;;;;;4982680;28;20556;-59
2021/08/20 08:22:22;;;;;;;14.10;6.25;;;;;;;;;;4986703;28;20122;-58
2021/08/20 08:24:47;;;;;;;9.95;4.80;;;;;;;;;;4983043;28;20502;-59
2021/08/20 08:27:13;;;;;;;11.45;3.40;;;;;;;;;;4970152;28;20109;-59
2021/08/20 08:29:38;;;;;;;11.50;3.10;;;;;;;;;;4971670;28;20149;-58
2021/08/20 08:32:04;;;;;;;12.13;2.72;;;;;;;;;;4978109;28;20073;-59
2021/08/20 08:34:29;;;;;;;10.15;2.35;;;;;;;;;;4977767;28;20422;-59
2021/08/20 08:36:55;;;;;;;16.70;2.30;;;;;;;;;;4982249;28;20110;-58
2021/08/20 08:39:20;;;;;;;6.68;2.38;;;;;;;;;;4986370;28;20528;-58
2021/08/20 08:41:46;;;;;;;11.57;2.30;;;;;;;;;;4971696;28;20037;-59
2021/08/20 08:44:11;;;;;;;3.95;1.80;;;;;;;;;;4978002;28;20051;-58
2021/08/20 08:46:37;;;;;;;7.47;1.88;;;;;;;;;;4972134;28;20038;-58
2021/08/20 08:49:07;;;;;;;3.65;1.63;;;;;;;;;;4978315;28;20048;-58
2021/08/20 08:51:33;;;;;;;13.65;1.88;;;;;;;;;;4970957;28;20035;-58
2021/08/20 08:53:59;;;;;;;10.77;2.25;;;;;;;;;;4978849;28;20654;-58
2021/08/20 08:56:24;;;;;;;7.47;2.40;;;;;;;;;;4981232;28;20117;-59
2021/08/20 08:58:50;;;;;;;15.98;1.67;;;;;;;;;;4965062;28;20037;-59
2021/08/20 09:01:38;;;;;;;14.63;2.00;;;;;;;;;;4973020;28;20069;-59
2021/08/20 09:04:07;;;;;;;5.88;1.60;;;;;;;;;;4978507;28;20066;-59
2021/08/20 09:06:47;;;;;;;4.20;1.20;;;;;;;;;;4980888;28;20035;-59
2021/08/20 09:09:17;;;;;;;4.22;1.27;;;;;;;;;;4980830;28;20035;-59
2021/08/20 09:11:49;;;;;;;3.30;1.83;;;;;;;;;;4977535;28;20031;-58
2021/08/20 09:14:17;;;;;;;4.47;1.40;;;;;;;;;;4984255;28;20026;-58
2021/08/20 09:16:45;;;;;;;3.60;1.17;;;;;;;;;;4980899;28;20260;-58
2021/08/20 09:19:12;;;;;;;3.28;0.93;;;;;;;;;;4985116;28;20023;-58
2021/08/20 09:21:39;;;;;;;5.22;1.30;;;;;;;;;;4983713;28;20030;-58
2021/08/20 09:24:37;;;;;;;3.10;0.77;;;;;;;;;;4981825;28;20445;-58
2021/08/20 09:27:17;;;;;;;3.08;1.27;;;;;;;;;;4980833;28;20019;-58
2021/08/20 09:30:12;;;;;;;4.38;1.08;;;;;;;;;;4984092;28;20510;-58
2021/08/20 09:32:45;;;;;;;5.88;1.00;;;;;;;;;;4986589;28;20105;-58
2021/08/20 09:35:11;;;;;;;2.45;0.93;;;;;;;;;;4984721;28;20058;-59
2021/08/20 09:37:37;;;;;;;2.95;0.75;;;;;;;;;;4982686;28;20034;-59
2021/08/20 09:40:07;;;;;;;3.53;0.70;;;;;;;;;;4979167;28;20093;-58
2021/08/20 09:42:34;;;;;;;3.83;0.90;;;;;;;;;;4978995;28;20030;-60
2021/08/20 09:45:19;;;;;;;4.88;0.93;;;;;;;;;;4978502;28;20031;-59
2021/08/20 09:47:53;;;;;;;2.78;1.17;;;;;;;;;;4986090;28;20070;-58
2021/08/20 09:50:21;;;;;;;4.10;1.75;;;;;;;;;;4972319;28;20041;-59
2021/08/20 09:52:47;;;;;;;3.30;0.82;;;;;;;;;;4985664;28;20572;-59
2021/08/20 09:55:37;;;;;;;2.40;0.85;;;;;;;;;;4975038;28;20050;-59
2021/08/20 09:58:07;;;;;;;6.97;1.50;;;;;;;;;;4980568;28;20037;-59
2021/08/20 10:00:33;;;;;;;2.95;0.77;;;;;;;;;;4974954;28;20506;-59
2021/08/20 10:03:00;;;;;;;2.97;1.00;;;;;;;;;;4980332;28;20065;-59
2021/08/20 10:05:26;;;;;;;2.15;0.73;;;;;;;;;;4974389;28;20031;-59
2021/08/20 10:07:53;;;;;;;2.33;1.10;;;;;;;;;;4979387;28;20059;-58
2021/08/20 10:10:20;;;;;;;4.68;0.80;;;;;;;;;;4978059;28;20670;-59
2021/08/20 10:12:46;;;;;;;2.47;0.57;;;;;;;;;;4977026;28;20038;-59
2021/08/20 10:15:12;;;;;;;1.40;0.77;;;;;;;;;;4975914;28;20275;-59
2021/08/20 10:17:38;;;;;;;3.35;0.75;;;;;;;;;;4975043;28;20481;-59
2021/08/20 10:20:05;;;;;;;1.10;0.52;;;;;;;;;;4973479;28;20105;-59
2021/08/20 10:22:31;;;;;;;2.05;0.65;;;;;;;;;;4977452;28;20030;-60
2021/08/20 10:24:57;;;;;;;1.30;0.60;;;;;;;;;;4980735;28;20062;-59
2021/08/20 10:27:23;;;;;;;2.40;0.75;;;;;;;;;;4978497;28;20500;-59
2021/08/20 10:29:52;;;;;;;5.85;0.70;;;;;;;;;;4974489;28;20647;-59
2021/08/20 10:32:18;;;;;;;11.38;2.17;;;;;;;;;;4977267;28;20026;-59
2021/08/20 10:34:43;;;;;;;4.68;1.30;;;;;;;;;;4986544;28;20045;-60
2021/08/20 10:37:14;;;;;;;10.65;1.45;;;;;;;;;;4978962;28;20045;-59
2021/08/20 10:39:42;;;;;;;6.55;1.80;;;;;;;;;;4972838;28;20056;-59
2021/08/20 10:42:09;;;;;;;4.03;1.05;;;;;;;;;;4977054;28;20126;-59
2021/08/20 10:44:41;;;;;;;2.78;1.33;;;;;;;;;;4971344;28;20082;-59
2021/08/20 10:47:07;;;;;;;;;;;;;;;;;;4974961;28;20478;-59
2021/08/20 10:49:41;;;;;;;5.68;1.30;;;;;;;;;;4984002;28;19972;-59
2021/08/20 10:52:07;;;;;;;7.90;1.10;;;;;;;;;;4977533;28;20033;-59
2021/08/20 10:54:36;;;;;;;7.18;1.83;;;;;;;;;;4971518;28;20518;-59
2021/08/20 10:57:06;;;;;;;2.92;1.27;;;;;;;;;;4974005;28;20382;-59
2021/08/20 10:59:43;;;;;;;4.57;1.50;;;;;;;;;;4975421;28;20096;-58
2021/08/20 11:02:18;;;;;;;7.43;1.45;;;;;;;;;;4979113;28;20041;-59
2021/08/20 11:05:05;;;;;;;8.13;2.13;;;;;;;;;;4982165;28;20045;-58
2021/08/20 11:07:37;;;;;;;7.03;1.60;;;;;;;;;;4982093;28;20113;-58
2021/08/20 11:10:08;;;;;;;4.38;1.60;;;;;;;;;;4981076;28;20097;-58
2021/08/20 11:12:54;;;;;;;3.40;1.45;;;;;;;;;;4971268;28;20097;-58
2021/08/20 11:15:22;;;;;;;2.30;1.35;;;;;;;;;;4974623;28;20524;-59
2021/08/20 11:17:58;;;;;;;4.65;1.80;;;;;;;;;;4979416;28;20030;-58
2021/08/20 11:20:36;;;;;;;5.47;1.63;;;;;;;;;;4981372;28;20449;-58
2021/08/20 11:23:05;;;;;;;3.83;1.77;;;;;;;;;;4976358;28;20118;-58
2021/08/20 11:25:47;;;;;;;3.85;2.03;;;;;;;;;;4976470;28;20121;-58
2021/08/20 11:28:19;;;;;;;8.82;2.60;;;;;;;;;;4976249;28;20035;-58
2021/08/20 11:30:56;;;;;;;7.47;2.90;;;;;;;;;;4971069;28;20626;-58
2021/08/20 11:33:38;;;;;;;7.85;2.58;;;;;;;;;;4982453;28;20042;-58
2021/08/20 11:36:05;;;;;;;10.07;2.80;;;;;;;;;;4975540;28;20247;-59
2021/08/20 11:38:56;;;;;;;9.88;2.83;;;;;;;;;;4975859;28;20558;-58
2021/08/20 11:41:41;;;;;;;11.77;2.30;;;;;;;;;;4980528;28;20037;-58
2021/08/20 11:44:09;;;;;;;11.07;3.17;;;;;;;;;;4979673;28;20026;-58
2021/08/20 11:46:39;;;;;;;11.15;3.08;;;;;;;;;;4976507;28;20405;-58
2021/08/20 11:49:06;;;;;;;10.07;2.78;;;;;;;;;;4974466;28;20034;-59
2021/08/20 11:51:37;;;;;;;11.43;3.05;;;;;;;;;;4979271;28;20042;-58
2021/08/20 11:54:11;;;;;;;13.93;3.30;;;;;;;;;;4973944;28;20030;-58
2021/08/20 11:56:47;;;;;;;10.82;3.05;;;;;;;;;;4973899;28;20402;-58
2021/08/20 11:59:13;;;;;;;13.15;3.10;;;;;;;;;;4974756;28;20025;-58
2021/08/20 12:01:40;;;;;;;16.38;3.72;;;;;;;;;;4978356;28;20035;-58
2021/08/20 12:04:07;;;;;;;11.35;3.00;;;;;;;;;;4985283;28;20038;-58
2021/08/20 12:06:33;;;;;;;15.60;3.45;;;;;;;;;;4973165;28;20551;-58
2021/08/20 12:09:09;;;;;;;14.18;2.92;;;;;;;;;;4972766;28;20049;-59
2021/08/20 12:11:35;;;;;;;7.05;3.00;;;;;;;;;;4972966;28;20019;-59
2021/08/20 12:14:01;;;;;;;18.35;3.38;;;;;;;;;;4980613;28;20053;-59
2021/08/20 12:16:39;;;;;;;14.63;3.05;;;;;;;;;;4981498;28;20182;-59
2021/08/20 12:19:13;;;;;;;8.13;2.72;;;;;;;;;;4976126;28;20213;-60
2021/08/20 12:21:38;;;;;;;10.10;2.85;;;;;;;;;;4980188;28;20382;-59
2021/08/20 12:24:07;;;;;;;12.23;3.00;;;;;;;;;;4985981;28;20037;-60
2021/08/20 12:26:33;;;;;;;6.03;2.42;;;;;;;;;;4989304;28;20378;-59
2021/08/20 12:29:11;;;;;;;8.40;3.53;;;;;;;;;;4981582;28;20064;-59
2021/08/20 12:31:37;;;;;;;10.63;2.85;;;;;;;;;;4985957;28;20069;-59
2021/08/20 12:34:05;;;;;;;8.02;2.63;;;;;;;;;;4978757;28;20073;-59
2021/08/20 12:36:31;;;;;;;11.55;2.83;;;;;;;;;;4980980;28;20023;-59
2021/08/20 12:39:13;;;;;;;13.05;3.20;;;;;;;;;;4989533;28;20475;-59
2021/08/20 12:41:39;;;;;;;;;;;;;;;;;;4981216;28;20643;-59
2021/08/20 12:44:06;;;;;;;10.43;3.00;;;;;;;;;;4978080;28;20360;-59
2021/08/20 12:46:42;;;;;;;8.02;2.75;;;;;;;;;;4983263;28;20038;-59
2021/08/20 12:49:08;;;;;;;8.35;3.00;;;;;;;;;;4978980;28;20347;-59
2021/08/20 12:51:36;;;;;;;9.88;3.20;;;;;;;;;;4979286;28;20031;-59
2021/08/20 12:54:10;;;;;;;18.45;3.78;;;;;;;;;;4977725;28;20081;-59
2021/08/20 12:56:40;;;;;;;7.93;3.25;;;;;;;;;;4985367;28;20105;-59
2021/08/20 12:59:09;;;;;;;13.77;3.72;;;;;;;;;;4985181;28;20029;-59
2021/08/20 13:01:38;;;;;;;31.52;4.28;;;;;;;;;;4974382;28;20026;-59
2021/08/20 13:04:04;;;;;;;19.00;3.85;;;;;;;;;;4978763;28;20026;-60
2021/08/20 13:06:30;;;;;;;8.65;2.78;;;;;;;;;;4974830;28;20056;-59
2021/08/20 13:08:56;;;;;;;2.55;1.40;;;;;;;;;;4982610;28;20155;-59
2021/08/20 13:11:22;;;;;;;1.50;1.08;;;;;;;;;;4975181;28;20113;-60
2021/08/20 13:13:49;;;;;;;3.55;1.02;;;;;;;;;;4975298;28;20027;-60
2021/08/20 13:16:15;;;;;;;2.58;1.10;;;;;;;;;;4981534;28;20029;-60
2021/08/20 13:18:42;;;;;;;8.35;1.10;;;;;;;;;;4978431;28;20030;-60
2021/08/20 13:21:08;;;;;;;6.97;1.40;;;;;;;;;;4981063;28;20043;-60
2021/08/20 13:23:33;;;;;;;4.38;1.10;;;;;;;;;;4976883;28;20519;-60
2021/08/20 13:26:04;;;;;;;4.30;1.20;;;;;;;;;;4984619;28;20042;-59
2021/08/20 13:28:31;;;;;;;3.17;0.90;;;;;;;;;;4978470;28;20030;-60
2021/08/20 13:30:56;;;;;;;3.30;1.00;;;;;;;;;;4975778;28;20121;-60
2021/08/20 13:33:23;;;;;;;3.83;1.40;;;;;;;;;;4980628;28;20473;-60
2021/08/20 13:35:48;;;;;;;8.02;1.65;;;;;;;;;;4980088;28;20076;-60
2021/08/20 13:38:14;;;;;;;3.17;1.50;;;;;;;;;;4982974;28;20425;-60
2021/08/20 13:40:40;;;;;;;6.32;1.65;;;;;;;;;;4979404;28;20281;-60
2021/08/20 13:43:14;;;;;;;6.50;1.20;;;;;;;;;;4974090;28;20388;-60
2021/08/20 13:45:44;;;;;;;2.50;1.30;;;;;;;;;;4978950;28;20049;-59
2021/08/20 13:48:10;;;;;;;3.72;1.27;;;;;;;;;;4978466;28;20454;-59
2021/08/20 13:50:36;;;;;;;8.57;2.47;;;;;;;;;;4975126;28;20609;-59
2021/08/20 13:53:05;;;;;;;5.72;1.40;;;;;;;;;;4974566;28;20041;-59
2021/08/20 13:55:35;;;;;;;5.65;1.25;;;;;;;;;;4972661;28;20099;-58
2021/08/20 13:58:02;;;;;;;3.00;1.20;;;;;;;;;;4977340;28;20498;-59
2021/08/20 14:00:28;;;;;;;3.10;1.33;;;;;;;;;;4979938;28;20064;-59
2021/08/20 14:02:54;;;;;;;4.57;1.60;;;;;;;;;;4979957;28;20244;-59
2021/08/20 14:05:20;;;;;;;4.10;1.17;;;;;;;;;;4982116;28;20527;-59
2021/08/20 14:07:45;;;;;;;5.00;1.20;;;;;;;;;;4986079;28;20031;-59
2021/08/20 14:10:11;;;;;;;3.80;2.10;;;;;;;;;;4977241;28;20047;-58
2021/08/20 14:12:37;;;;;;;8.20;2.67;;;;;;;;;;4976052;28;20467;-58
2021/08/20 14:15:03;;;;;;;13.07;3.45;;;;;;;;;;4983440;28;20117;-59
2021/08/20 14:17:31;;;;;;;9.43;3.10;;;;;;;;;;4979058;28;20037;-59
2021/08/20 14:19:57;;;;;;;8.45;2.50;;;;;;;;;;4983241;28;20034;-59
2021/08/20 14:22:22;;;;;;;11.95;2.50;;;;;;;;;;4976976;28;20038;-58
2021/08/20 14:24:48;;;;;;;8.93;1.95;;;;;;;;;;4976098;28;20521;-58
2021/08/20 14:27:13;;;;;;;5.72;1.63;;;;;;;;;;4964169;28;20048;-58